createdAt,value
2024-02-17T00:02:00.399Z,101422.16
2024-02-17T00:05:04.238Z,101413.41
2024-02-17T00:08:10.493Z,101427.84
2024-02-17T00:11:16.762Z,101431.16
2024-02-17T00:14:19.547Z,101422.97
2024-02-17T00:17:25.287Z,101396.50
2024-02-17T00:20:27.880Z,101389.50
2024-02-17T00:23:32.681Z,101425.25
2024-02-17T00:26:41.374Z,101409.84
2024-02-17T00:29:44.203Z,101405.25
2024-02-17T00:32:54.185Z,101390.69
2024-02-17T00:35:58.774Z,101406.09
2024-02-17T00:39:01.710Z,101392.34
2024-02-17T00:42:04.511Z,101401.09
2024-02-17T00:45:07.718Z,101419.22
2024-02-17T00:48:10.356Z,101414.56
2024-02-17T00:51:16.047Z,101415.19
2024-02-17T00:54:18.912Z,101410.19
2024-02-17T00:57:21.590Z,101420.03
2024-02-17T01:00:24.858Z,101420.03
2024-02-17T01:03:27.606Z,101409.25
2024-02-17T01:06:30.686Z,101422.16
2024-02-17T01:09:33.362Z,101417.66
2024-02-17T01:12:36.851Z,101417.06
2024-02-17T01:15:39.632Z,101399.44
2024-02-17T01:18:42.732Z,101412.34
2024-02-17T01:21:45.384Z,101420.38
2024-02-17T01:24:48.414Z,101414.44
2024-02-17T01:27:51.201Z,101417.53
2024-02-17T01:30:53.904Z,101415.41
2024-02-17T01:33:57.124Z,101420.72
2024-02-17T01:36:59.565Z,101401.78
2024-02-17T01:40:08.472Z,101397.28
2024-02-17T01:43:15.143Z,101400.00
2024-02-17T01:46:19.022Z,101383.22
2024-02-17T01:49:25.015Z,101421.53
2024-02-17T01:52:31.390Z,101409.34
2024-02-17T01:55:35.388Z,101416.94
2024-02-17T01:58:38.419Z,101421.41
2024-02-17T02:01:45.092Z,101406.03
2024-02-17T02:04:48.728Z,101418.22
2024-02-17T02:07:51.279Z,101430.38
2024-02-17T02:10:56.372Z,101431.59
2024-02-17T02:14:14.726Z,101430.63
2024-02-17T02:17:19.636Z,101427.66
2024-02-17T02:20:22.959Z,101430.63
2024-02-17T02:23:25.710Z,101427.28
2024-02-17T02:26:28.096Z,101430.41
2024-02-17T02:29:30.700Z,101426.66
2024-02-17T02:32:33.060Z,101428.44
2024-02-17T02:35:35.431Z,101428.66
2024-02-17T02:38:39.111Z,101425.47
2024-02-17T02:41:42.098Z,101419.25
2024-02-17T02:44:45.154Z,101417.50
2024-02-17T02:47:48.886Z,101414.84
2024-02-17T02:50:52.132Z,101409.16
2024-02-17T02:54:04.458Z,101413.31
2024-02-17T02:57:07.644Z,101406.50
2024-02-17T03:00:11.118Z,101403.72
2024-02-17T03:03:14.849Z,101401.56
2024-02-17T03:06:17.527Z,101402.09
2024-02-17T03:09:20.788Z,101410.84
2024-02-17T03:12:24.416Z,101393.66
2024-02-17T03:15:28.006Z,101437.88
2024-02-17T03:18:31.085Z,101417.34
2024-02-17T03:21:37.649Z,101429.09
2024-02-17T03:24:41.355Z,101401.50
2024-02-17T03:27:43.890Z,101437.47
2024-02-17T03:30:47.918Z,101414.44
2024-02-17T03:33:52.074Z,101440.59
2024-02-17T03:36:55.610Z,101420.75
2024-02-17T03:39:58.209Z,101447.28
2024-02-17T03:43:00.679Z,101443.03
2024-02-17T03:46:03.020Z,101444.69
2024-02-17T03:49:05.555Z,101444.25
2024-02-17T03:52:09.169Z,101456.84
2024-02-17T03:55:12.337Z,101452.81
2024-02-17T03:58:15.432Z,101453.94
2024-02-17T04:01:18.978Z,101421.59
2024-02-17T04:05:00.960Z,101453.94
2024-02-17T04:08:33.631Z,101455.72
2024-02-17T04:11:40.096Z,101422.13
2024-02-17T04:14:44.916Z,101427.75
2024-02-17T04:17:47.551Z,101424.50
2024-02-17T04:20:50.435Z,101431.38
2024-02-17T04:23:52.899Z,101444.44
2024-02-17T04:26:57.406Z,101455.25
2024-02-17T04:30:04.104Z,101453.41
2024-02-17T04:33:07.525Z,101456.00
2024-02-17T04:36:13.018Z,101461.50
2024-02-17T04:39:16.367Z,101454.63
2024-02-17T04:42:19.296Z,101456.63
2024-02-17T04:45:22.642Z,101442.22
2024-02-17T04:48:26.166Z,101463.00
2024-02-17T04:51:28.968Z,101457.38
2024-02-17T04:54:32.276Z,101462.38
2024-02-17T04:57:35.036Z,101462.44
2024-02-17T05:00:37.982Z,101454.28
2024-02-17T05:03:41.261Z,101469.94
2024-02-17T05:06:48.753Z,101468.19
2024-02-17T05:09:51.501Z,101470.88
2024-02-17T05:12:54.111Z,101477.84
2024-02-17T05:15:58.051Z,101469.97
2024-02-17T05:19:00.979Z,101472.75
2024-02-17T05:22:04.998Z,101475.56
2024-02-17T05:25:07.470Z,101479.41
2024-02-17T05:28:10.124Z,101478.69
2024-02-17T05:31:29.827Z,101481.28
2024-02-17T05:34:32.457Z,101480.63
2024-02-17T05:37:35.003Z,101477.94
2024-02-17T05:40:38.900Z,101485.19
2024-02-17T05:43:41.469Z,101475.63
2024-02-17T05:46:44.345Z,101486.75
2024-02-17T05:49:47.465Z,101495.56
2024-02-17T05:52:51.022Z,101497.13
2024-02-17T05:55:53.362Z,101491.63
2024-02-17T05:58:58.067Z,101505.53
2024-02-17T06:02:00.459Z,101491.00
2024-02-17T06:05:04.234Z,101506.09
2024-02-17T06:08:07.311Z,101510.13
2024-02-17T06:11:09.666Z,101517.41
2024-02-17T06:14:11.998Z,101518.63
2024-02-17T06:17:23.934Z,101507.03
2024-02-17T06:20:45.173Z,101521.97
2024-02-17T06:23:49.225Z,101531.09
2024-02-17T06:26:52.068Z,101531.72
2024-02-17T06:29:54.799Z,101526.72
2024-02-17T06:33:02.265Z,101541.69
2024-02-17T06:36:13.891Z,101535.88
2024-02-17T06:39:27.604Z,101534.41
2024-02-17T06:42:30.246Z,101541.47
2024-02-17T06:45:39.698Z,101554.78
2024-02-17T06:48:45.199Z,101550.00
2024-02-17T06:51:51.141Z,101564.72
2024-02-17T06:55:18.560Z,101536.38
2024-02-17T07:02:28.092Z,101560.03
2024-02-17T07:05:38.637Z,101519.25
2024-02-17T07:08:55.188Z,101525.66
2024-02-17T07:12:08.725Z,101539.28
2024-02-17T07:15:27.291Z,101534.19
2024-02-17T07:18:30.838Z,101556.19
2024-02-17T07:21:40.817Z,101532.72
2024-02-17T07:24:49.733Z,101542.97
2024-02-17T07:27:59.426Z,101526.66
2024-02-17T07:31:02.267Z,101536.09
2024-02-17T07:34:05.096Z,101556.31
2024-02-17T07:37:07.876Z,101546.38
2024-02-17T07:40:15.760Z,101556.53
2024-02-17T07:43:24.175Z,101567.31
2024-02-17T07:46:37.373Z,101572.09
2024-02-17T07:49:45.100Z,101536.56
2024-02-17T07:52:47.697Z,101573.28
2024-02-17T07:55:54.382Z,101572.63
2024-02-17T07:59:07.456Z,101565.91
2024-02-17T08:02:11.169Z,101546.63
2024-02-17T08:05:25.403Z,101581.06
2024-02-17T08:08:31.853Z,101556.09
2024-02-17T08:11:36.847Z,101542.88
2024-02-17T08:14:57.522Z,101555.91
2024-02-17T08:18:03.211Z,101569.69
2024-02-17T08:21:06.244Z,101566.75
2024-02-17T08:24:11.581Z,101581.72
2024-02-17T08:27:17.727Z,101554.50
2024-02-17T08:30:20.756Z,101565.38
2024-02-17T08:33:23.267Z,101587.91
2024-02-17T08:36:25.736Z,101580.22
2024-02-17T08:39:29.664Z,101588.16
2024-02-17T08:42:32.213Z,101590.28
2024-02-17T08:45:40.604Z,101584.97
2024-02-17T08:48:43.255Z,101589.13
2024-02-17T08:51:45.761Z,101594.31
2024-02-17T08:54:48.200Z,101593.63
2024-02-17T08:57:50.502Z,101587.44
2024-02-17T09:00:54.331Z,101584.81
2024-02-17T09:03:57.089Z,101583.88
2024-02-17T09:07:01.089Z,101575.78
2024-02-17T09:10:04.796Z,101575.59
2024-02-17T09:13:08.957Z,101575.53
2024-02-17T09:16:11.414Z,101581.13
2024-02-17T09:19:14.128Z,101573.09
2024-02-17T09:22:18.279Z,101584.47
2024-02-17T09:25:21.347Z,101572.63
2024-02-17T09:28:24.166Z,101572.75
2024-02-17T09:31:26.584Z,101576.53
2024-02-17T09:34:31.179Z,101577.81
2024-02-17T09:37:33.763Z,101576.72
2024-02-17T09:40:36.481Z,101565.44
2024-02-17T09:43:39.438Z,101554.91
2024-02-17T09:46:42.104Z,101562.09
2024-02-17T09:49:44.988Z,101568.03
2024-02-17T09:52:51.755Z,101570.47
2024-02-17T09:55:54.277Z,101574.25
2024-02-17T09:58:57.256Z,101575.66
2024-02-17T10:02:00.009Z,101571.50
2024-02-17T10:05:04.042Z,101586.47
2024-02-17T10:08:08.109Z,101581.06
2024-02-17T10:11:13.373Z,101565.25
2024-02-17T10:14:17.858Z,101564.28
2024-02-17T10:17:24.134Z,101554.38
2024-02-17T10:20:26.823Z,101576.69
2024-02-17T10:23:29.130Z,101574.94
2024-02-17T10:26:31.558Z,101578.66
2024-02-17T10:29:33.929Z,101574.53
2024-02-17T10:32:37.123Z,101574.00
2024-02-17T10:35:44.353Z,101572.34
2024-02-17T10:38:47.552Z,101581.19
2024-02-17T10:41:50.112Z,101563.25
2024-02-17T10:44:52.514Z,101554.56
2024-02-17T10:48:06.900Z,101557.72
2024-02-17T10:51:10.139Z,101582.25
2024-02-17T10:54:17.950Z,101551.66
2024-02-17T10:57:24.020Z,101566.53
2024-02-17T11:00:27.049Z,101561.31
2024-02-17T11:03:37.960Z,101558.78
2024-02-17T11:06:44.407Z,101562.91
2024-02-17T11:09:47.403Z,101558.72
2024-02-17T11:12:51.508Z,101560.38
2024-02-17T11:16:06.261Z,101566.97
2024-02-17T11:19:13.080Z,101554.13
2024-02-17T11:22:18.649Z,101565.31
2024-02-17T11:25:35.865Z,101563.13
2024-02-17T11:28:38.772Z,101563.31
2024-02-17T11:31:43.226Z,101562.31
2024-02-17T11:34:47.931Z,101551.47
2024-02-17T11:37:55.156Z,101564.69
2024-02-17T11:40:59.567Z,101558.81
2024-02-17T11:44:02.432Z,101562.03
2024-02-17T11:47:05.003Z,101555.34
2024-02-17T11:50:12.729Z,101559.31
2024-02-17T11:53:16.179Z,101567.72
2024-02-17T11:56:19.136Z,101564.19
2024-02-17T11:59:22.411Z,101564.38
2024-02-17T12:02:25.392Z,101563.28
2024-02-17T12:05:28.052Z,101560.78
2024-02-17T12:08:32.189Z,101575.28
2024-02-17T12:11:36.577Z,101564.75
2024-02-17T12:14:39.123Z,101558.19
2024-02-17T12:17:46.123Z,101558.41
2024-02-17T12:20:51.782Z,101559.53
2024-02-17T12:23:59.004Z,101558.56
2024-02-17T12:27:02.026Z,101563.56
2024-02-17T12:30:08.113Z,101553.88
2024-02-17T12:33:11.896Z,101560.28
2024-02-17T12:36:23.847Z,101559.84
2024-02-17T12:39:27.650Z,101557.63
2024-02-17T12:42:30.898Z,101554.34
2024-02-17T12:45:34.225Z,101549.25
2024-02-17T12:48:40.438Z,101545.91
2024-02-17T12:51:48.945Z,101545.06
2024-02-17T12:54:51.914Z,101553.16
2024-02-17T12:57:55.196Z,101554.47
2024-02-17T13:01:00.405Z,101549.56
2024-02-17T13:04:03.196Z,101545.59
2024-02-17T13:07:06.085Z,101548.06
2024-02-17T13:10:10.443Z,101547.06
2024-02-17T13:13:12.888Z,101547.50
2024-02-17T13:16:16.617Z,101555.28
2024-02-17T13:19:20.033Z,101554.25
2024-02-17T13:22:24.796Z,101552.59
2024-02-17T13:25:27.320Z,101546.09
2024-02-17T13:28:31.315Z,101554.88
2024-02-17T13:31:35.310Z,101555.25
2024-02-17T13:34:40.424Z,101560.69
2024-02-17T13:37:46.669Z,101564.31
2024-02-17T13:40:56.957Z,101562.84
2024-02-17T13:44:09.960Z,101568.94
2024-02-17T13:47:15.650Z,101573.97
2024-02-17T13:50:18.171Z,101577.38
2024-02-17T13:53:21.134Z,101583.88
2024-02-17T13:56:28.220Z,101570.72
2024-02-17T13:59:38.958Z,101563.16
2024-02-17T14:02:43.916Z,101577.25
2024-02-17T14:05:47.062Z,101601.44
2024-02-17T14:08:59.841Z,101608.53
2024-02-17T14:12:05.575Z,101598.22
2024-02-17T14:15:09.669Z,101598.72
2024-02-17T14:18:16.115Z,101614.88
2024-02-17T14:21:21.060Z,101612.53
2024-02-17T14:24:24.110Z,101615.47
2024-02-17T14:27:29.305Z,101613.13
2024-02-17T14:30:38.361Z,101611.06
2024-02-17T14:33:49.742Z,101621.13
2024-02-17T14:36:53.038Z,101627.59
2024-02-17T14:39:59.604Z,101632.72
2024-02-17T14:43:02.602Z,101634.66
2024-02-17T14:46:05.566Z,101639.50
2024-02-17T14:49:08.814Z,101622.13
2024-02-17T14:52:11.847Z,101655.06
2024-02-17T14:55:14.737Z,101636.75
2024-02-17T14:58:17.374Z,101651.78
2024-02-17T15:01:20.154Z,101653.72
2024-02-17T15:04:22.923Z,101653.72
2024-02-17T15:07:25.552Z,101664.19
2024-02-17T15:10:31.728Z,101679.78
2024-02-17T15:13:35.417Z,101684.75
2024-02-17T15:16:39.714Z,101677.16
2024-02-17T15:19:43.290Z,101656.25
2024-02-17T15:22:47.180Z,101679.41
2024-02-17T15:25:49.860Z,101678.59
2024-02-17T15:28:52.921Z,101675.66
2024-02-17T15:31:56.199Z,101687.66
2024-02-17T15:34:59.627Z,101697.75
2024-02-17T15:38:07.592Z,101702.69
2024-02-17T15:41:11.268Z,101706.56
2024-02-17T15:44:14.257Z,101706.69
2024-02-17T15:47:16.597Z,101704.88
2024-02-17T15:50:19.059Z,101706.53
2024-02-17T15:53:29.007Z,101709.16
2024-02-17T15:56:31.570Z,101708.97
2024-02-17T15:59:34.424Z,101719.28
2024-02-17T16:02:37.956Z,101713.06
2024-02-17T16:05:40.744Z,101705.22
2024-02-17T16:08:43.138Z,101734.00
2024-02-17T16:11:47.558Z,101726.84
2024-02-17T16:14:50.022Z,101725.81
2024-02-17T16:17:54.612Z,101730.50
2024-02-17T16:21:03.492Z,101742.59
2024-02-17T16:24:09.045Z,101752.66
2024-02-17T16:27:12.183Z,101763.94
2024-02-17T16:30:14.782Z,101767.63
2024-02-17T16:33:17.591Z,101770.22
2024-02-17T16:36:20.172Z,101785.44
2024-02-17T16:39:22.982Z,101790.91
2024-02-17T16:42:26.863Z,101785.69
2024-02-17T16:45:33.945Z,101802.03
2024-02-17T16:48:37.972Z,101808.25
2024-02-17T16:51:44.708Z,101804.88
2024-02-17T16:54:48.370Z,101810.59
2024-02-17T16:57:51.033Z,101808.59
2024-02-17T17:00:53.644Z,101821.22
2024-02-17T17:03:56.508Z,101818.25
2024-02-17T17:07:09.074Z,101815.03
2024-02-17T17:10:11.877Z,101822.88
2024-02-17T17:13:17.500Z,101825.75
2024-02-17T17:16:19.783Z,101833.13
2024-02-17T17:19:23.013Z,101821.50
2024-02-17T17:22:38.854Z,101803.38
2024-02-17T17:25:46.339Z,101814.03
2024-02-17T17:28:50.295Z,101817.00
2024-02-17T17:31:53.463Z,101821.75
2024-02-17T17:34:56.378Z,101825.66
2024-02-17T17:38:08.330Z,101828.38
2024-02-17T17:41:10.773Z,101824.25
2024-02-17T17:44:17.541Z,101816.44
2024-02-17T17:47:21.326Z,101808.56
2024-02-17T17:50:25.332Z,101819.38
2024-02-17T17:53:35.777Z,101822.59
2024-02-17T17:56:44.476Z,101832.69
2024-02-17T17:59:58.705Z,101817.72
2024-02-17T18:03:03.717Z,101825.78
2024-02-17T18:06:31.467Z,101806.06
2024-02-17T18:09:51.359Z,101836.94
2024-02-17T18:12:55.229Z,101830.16
2024-02-17T18:16:02.279Z,101808.22
2024-02-17T18:19:06.874Z,101808.59
2024-02-17T18:22:12.116Z,101805.38
2024-02-17T18:25:18.978Z,101833.16
2024-02-17T18:28:21.786Z,101828.53
2024-02-17T18:31:23.994Z,101829.34
2024-02-17T18:34:30.644Z,101833.59
2024-02-17T18:37:38.859Z,101831.94
2024-02-17T18:40:44.195Z,101835.63
2024-02-17T18:43:47.165Z,101819.16
2024-02-17T18:46:59.083Z,101834.31
2024-02-17T18:50:02.436Z,101803.22
2024-02-17T18:53:05.751Z,101835.03
2024-02-17T18:56:10.945Z,101840.25
2024-02-17T18:59:19.318Z,101845.47
2024-02-17T19:02:31.230Z,101839.88
2024-02-17T19:05:44.196Z,101818.19
2024-02-17T19:09:01.461Z,101848.09
2024-02-17T19:12:04.680Z,101838.00
2024-02-17T19:15:07.856Z,101840.25
2024-02-17T19:18:10.668Z,101860.31
2024-02-17T19:21:16.352Z,101861.13
2024-02-17T19:24:19.165Z,101864.69
2024-02-17T19:27:21.950Z,101862.31
2024-02-17T19:30:25.462Z,101865.41
2024-02-17T19:33:29.276Z,101854.56
2024-02-17T19:36:31.760Z,101868.34
2024-02-17T19:39:35.990Z,101877.63
2024-02-17T19:42:38.325Z,101868.88
2024-02-17T19:45:40.469Z,101877.16
2024-02-17T19:48:42.898Z,101879.56
2024-02-17T19:51:46.557Z,101880.78
2024-02-17T19:54:50.546Z,101886.09
2024-02-17T19:57:55.494Z,101895.09
2024-02-17T20:00:58.644Z,101896.78
2024-02-17T20:04:01.132Z,101885.03
2024-02-17T20:07:03.724Z,101890.25
2024-02-17T20:10:09.508Z,101892.03
2024-02-17T20:13:12.107Z,101903.91
2024-02-17T20:16:14.626Z,101896.78
2024-02-17T20:19:18.100Z,101886.06
2024-02-17T20:22:24.338Z,101903.75
2024-02-17T20:25:31.715Z,101892.69
2024-02-17T20:28:34.273Z,101905.31
2024-02-17T20:31:36.919Z,101908.28
2024-02-17T20:34:39.585Z,101903.91
2024-02-17T20:37:42.092Z,101913.72
2024-02-17T20:40:44.502Z,101910.69
2024-02-17T20:43:47.199Z,101909.25
2024-02-17T20:46:50.572Z,101912.69
2024-02-17T20:49:54.379Z,101916.81
2024-02-17T20:52:59.493Z,101940.91
2024-02-17T20:56:09.738Z,101941.88
2024-02-17T20:59:22.019Z,101907.78
2024-02-17T21:06:10.365Z,101912.63
2024-02-17T21:09:13.291Z,101946.38
2024-02-17T21:12:15.805Z,101938.31
2024-02-17T21:15:21.733Z,101943.34
2024-02-17T21:18:24.956Z,101946.19
2024-02-17T21:21:30.659Z,101932.75
2024-02-17T21:24:36.102Z,101914.56
2024-02-17T21:27:38.691Z,101942.84
2024-02-17T21:30:42.633Z,101908.75
2024-02-17T21:33:45.966Z,101943.09
2024-02-17T21:37:24.593Z,101957.88
2024-02-17T21:40:45.184Z,101946.34
2024-02-17T21:43:54.896Z,101952.94
2024-02-17T21:46:57.754Z,101929.56
2024-02-17T21:50:08.019Z,101959.25
2024-02-17T21:53:13.629Z,101954.47
2024-02-17T22:03:55.011Z,101938.31
2024-02-17T22:07:10.655Z,101977.03
2024-02-17T22:10:13.792Z,101972.44
2024-02-17T22:13:24.040Z,101971.47
2024-02-17T22:16:35.794Z,101979.31
2024-02-17T22:19:43.520Z,101980.97
2024-02-17T22:22:48.106Z,101973.34
2024-02-17T22:25:54.693Z,101980.25
2024-02-17T22:29:00.704Z,101971.09
2024-02-17T22:32:05.764Z,101955.59
2024-02-17T22:35:10.170Z,101966.03
2024-02-17T22:38:20.159Z,101963.16
2024-02-17T22:41:23.346Z,101968.50
2024-02-17T22:44:27.182Z,101963.25
2024-02-17T22:47:40.668Z,101968.38
2024-02-17T22:50:43.714Z,101976.03
2024-02-17T22:54:10.471Z,101983.38
2024-02-17T22:57:29.332Z,101965.47
2024-02-17T23:00:32.954Z,101972.38
2024-02-17T23:03:35.513Z,101970.16
2024-02-17T23:06:54.225Z,101966.59
2024-02-17T23:09:58.830Z,101960.75
2024-02-17T23:13:02.336Z,101969.47
2024-02-17T23:16:13.120Z,101973.47
2024-02-17T23:19:22.873Z,101956.38
2024-02-17T23:22:31.929Z,101968.75
2024-02-17T23:25:39.507Z,101971.09
2024-02-17T23:28:42.579Z,101966.72
2024-02-17T23:31:45.861Z,101957.09
2024-02-17T23:34:49.301Z,101968.25
2024-02-17T23:37:52.507Z,101971.59
2024-02-17T23:41:01.834Z,101973.34
2024-02-17T23:44:05.961Z,101969.22
2024-02-17T23:47:09.949Z,101980.25
2024-02-17T23:50:14.943Z,101977.34
2024-02-17T23:53:20.985Z,101978.94
2024-02-17T23:56:26.930Z,101959.88
2024-02-17T23:59:31.842Z,101970.09
